Winterport, Maine
Current Conditions -  °F | °C
As of 11:53 AM on Sunday 23 Nov 2014 (Local Time) from KBGR Reporting Station
Broken Clouds Broken Clouds  
Wind Chill: 49°   Ceiling: 4000
Heat Index: 49°   Visibility: 10mi
Dew Point: 32°   Wind: 0mph
Humidity: 52%   Direction: NA
Pressure: 30.06"   Gusts: NA
Location:  44.65°N, 68.86°W
Report Text: KBGR 231653Z 00000KT 10SM BKN040 09/00 A3006 RMK AO2 SLP179 T00940000
Loading
Personal Weather Stations






























Interactive Weather Map New forecast layout! Learn more

10-Day Weather Forecast

Advertisements
Track Severe Weather on mobile